Time;durP1;ratioP1;P1;durP2;ratioP2;P2;SDS_P1;SDS_P2;PMS_P1;PMS_P2;Temp;Humidity;BMP_temperature;BMP_pressure;BME280_temperature;BME280_humidity;BME280_pressure;Samples;Min_cycle;Max_cycle;Signal;HPM_P1;HPM_P2
2024/04/09 00:00:15;;;;;;;12.90;12.50;;;22.80;74.90;;;;;;5416071;26;20468;-61
2024/04/09 00:02:41;;;;;;;14.10;13.70;;;22.80;74.90;;;;;;5416695;26;20707;-62
2024/04/09 00:05:13;;;;;;;12.77;12.47;;;22.80;74.90;;;;;;5416759;26;20511;-62
2024/04/09 00:07:39;;;;;;;12.23;11.90;;;22.80;75.40;;;;;;5416755;26;20215;-63
2024/04/09 00:10:09;;;;;;;12.47;12.17;;;22.80;74.90;;;;;;5416536;26;20864;-62
2024/04/09 00:12:36;;;;;;;12.40;12.00;;;22.70;74.70;;;;;;5416617;26;20309;-63
2024/04/09 00:15:07;;;;;;;13.13;12.73;;;22.70;74.70;;;;;;5416578;26;20521;-62
2024/04/09 00:17:34;;;;;;;12.50;12.17;;;22.80;75.20;;;;;;5416583;26;20501;-62
2024/04/09 00:20:09;;;;;;;12.80;12.50;;;22.80;74.90;;;;;;5416477;26;20457;-63
2024/04/09 00:22:39;;;;;;;13.10;12.70;;;22.70;74.80;;;;;;5416528;26;20911;-62
2024/04/09 00:25:07;;;;;;;13.00;12.50;;;22.80;74.90;;;;;;5416893;26;20862;-62
2024/04/09 00:27:33;;;;;;;12.53;12.23;;;22.70;74.80;;;;;;5416316;26;20461;-62
2024/04/09 00:30:01;;;;;;;13.63;13.03;;;22.70;74.70;;;;;;5416315;26;20967;-62
2024/04/09 00:32:27;;;;;;;14.37;13.97;;;22.70;74.70;;;;;;5415936;26;20214;-62
2024/04/09 00:34:58;;;;;;;13.10;12.80;;;22.70;74.70;;;;;;5416460;26;20552;-62
2024/04/09 00:37:26;;;;;;;13.50;13.10;;;22.70;74.70;;;;;;5416179;26;20210;-62
2024/04/09 00:39:59;;;;;;;18.07;17.57;;;22.70;74.70;;;;;;5416105;26;20534;-62
2024/04/09 00:42:25;;;;;;;12.50;12.20;;;22.70;74.70;;;;;;5394118;21;21154;-63
2024/04/09 00:44:54;;;;;;;13.50;13.00;;;22.70;74.70;;;;;;5360105;26;20467;-63
2024/04/09 00:47:22;;;;;;;13.17;12.87;;;22.70;75.40;;;;;;5364443;26;21057;-63
2024/04/09 00:49:50;;;;;;;13.37;12.97;;;22.70;74.70;;;;;;5365873;26;20593;-63
2024/04/09 00:52:16;;;;;;;13.80;13.33;;;22.70;74.60;;;;;;5333067;26;20472;-63
2024/04/09 00:54:46;;;;;;;13.20;12.83;;;22.70;75.40;;;;;;5325155;26;20816;-63
2024/04/09 00:57:17;;;;;;;13.17;12.77;;;22.70;74.60;;;;;;5327801;26;20469;-63
2024/04/09 00:59:46;;;;;;;13.13;12.80;;;22.70;74.60;;;;;;5330989;26;20475;-62
2024/04/09 01:02:12;;;;;;;12.73;12.43;;;22.70;74.60;;;;;;5327877;26;20620;-63
2024/04/09 01:04:41;;;;;;;12.83;12.53;;;22.70;74.60;;;;;;5325022;26;20558;-63
2024/04/09 01:07:07;;;;;;;13.30;12.90;;;22.70;74.60;;;;;;5326241;26;20541;-63
2024/04/09 01:09:42;;;;;;;12.50;12.20;;;22.70;74.60;;;;;;5330861;26;20463;-63
2024/04/09 01:12:08;;;;;;;13.90;13.50;;;22.70;74.60;;;;;;5329078;26;20541;-63
2024/04/09 01:14:39;;;;;;;12.97;12.57;;;22.70;74.50;;;;;;5325007;26;20461;-63
2024/04/09 01:17:04;;;;;;;13.53;13.03;;;22.70;74.60;;;;;;5325247;26;20234;-63
2024/04/09 01:19:33;;;;;;;13.80;13.30;;;22.70;74.50;;;;;;5330695;26;20935;-63
2024/04/09 01:21:59;;;;;;;12.90;12.60;;;22.70;74.60;;;;;;5330211;26;20245;-63
2024/04/09 01:24:32;;;;;;;13.83;13.43;;;22.60;74.40;;;;;;5325352;26;20468;-63
2024/04/09 01:26:58;;;;;;;14.20;13.80;;;22.70;74.60;;;;;;5324870;26;20518;-63
2024/04/09 01:29:26;;;;;;;13.00;12.60;;;22.70;74.60;;;;;;5329640;26;20935;-62
2024/04/09 01:31:52;;;;;;;13.77;13.23;;;22.70;74.50;;;;;;5329973;26;20472;-62
2024/04/09 01:34:21;;;;;;;13.90;13.23;;;22.70;74.50;;;;;;5327081;26;20546;-63
2024/04/09 01:36:48;;;;;;;13.03;12.63;;;22.70;74.50;;;;;;5324581;26;20242;-63
2024/04/09 01:39:16;;;;;;;13.50;13.10;;;22.70;74.50;;;;;;5326796;26;20528;-63
2024/04/09 01:41:46;;;;;;;13.43;13.03;;;22.70;74.50;;;;;;5329648;26;20514;-63
2024/04/09 01:44:15;;;;;;;12.83;12.43;;;22.70;74.50;;;;;;5327782;26;20475;-63
2024/04/09 01:46:40;;;;;;;13.23;12.83;;;22.70;74.50;;;;;;5324417;26;20469;-63
2024/04/09 01:49:09;;;;;;;13.30;12.90;;;22.70;74.50;;;;;;5324663;26;20549;-61
2024/04/09 01:51:35;;;;;;;13.50;13.10;;;22.60;74.30;;;;;;5329665;26;20234;-62
2024/04/09 01:54:03;;;;;;;12.60;12.30;;;22.70;74.50;;;;;;5330221;26;21070;-62
2024/04/09 01:56:29;;;;;;;13.40;13.00;;;22.60;74.30;;;;;;5324348;26;20811;-62
2024/04/09 01:59:01;;;;;;;13.53;13.10;;;22.70;74.40;;;;;;5324371;26;20533;-63
2024/04/09 02:01:26;;;;;;;13.17;12.80;;;22.70;74.40;;;;;;5328770;26;20344;-63
2024/04/09 02:03:56;;;;;;;13.30;12.90;;;22.60;74.30;;;;;;5330169;26;20527;-63
2024/04/09 02:06:23;;;;;;;14.67;14.17;;;22.70;74.40;;;;;;5326254;26;20225;-63
2024/04/09 02:08:52;;;;;;;14.00;13.60;;;22.60;74.30;;;;;;5324029;26;21087;-63
2024/04/09 02:11:18;;;;;;;13.33;12.93;;;22.60;74.30;;;;;;5326421;26;20477;-63
2024/04/09 02:13:47;;;;;;;13.90;13.50;;;22.70;74.40;;;;;;5329977;26;20460;-63
2024/04/09 02:16:16;;;;;;;14.07;13.10;;;22.70;74.40;;;;;;5328011;26;20612;-63
2024/04/09 02:18:45;;;;;;;13.30;12.90;;;22.70;74.30;;;;;;5323891;26;21038;-64
2024/04/09 02:21:11;;;;;;;13.00;12.60;;;22.70;74.30;;;;;;5324702;26;20588;-63
2024/04/09 02:23:39;;;;;;;13.10;12.70;;;22.70;74.30;;;;;;5329674;26;20479;-63
2024/04/09 02:26:05;;;;;;;13.50;13.10;;;22.70;75.10;;;;;;5329779;26;20229;-63
2024/04/09 02:28:35;;;;;;;13.53;13.13;;;22.70;74.30;;;;;;5309656;26;20473;-63
2024/04/09 02:31:04;;;;;;;12.60;12.20;;;22.60;74.20;;;;;;5323257;26;20234;-64
2024/04/09 02:33:35;;;;;;;12.60;12.20;;;22.60;75.00;;;;;;5329113;26;20463;-63
2024/04/09 02:36:04;;;;;;;12.50;12.20;;;22.60;74.30;;;;;;5329460;26;20467;-63
2024/04/09 02:38:37;;;;;;;12.80;12.30;;;22.60;74.20;;;;;;5323911;26;20461;-63
2024/04/09 02:41:03;;;;;;;12.30;12.00;;;22.60;74.30;;;;;;5322832;26;20826;-63
2024/04/09 02:43:31;;;;;;;12.93;12.43;;;22.60;74.30;;;;;;5328717;26;20475;-63
2024/04/09 02:45:58;;;;;;;12.90;12.60;;;22.60;74.20;;;;;;5329761;26;20720;-63
2024/04/09 02:48:27;;;;;;;12.80;12.40;;;22.60;74.20;;;;;;5325574;26;20472;-63
2024/04/09 02:50:56;;;;;;;14.67;14.27;;;22.60;74.20;;;;;;5322670;26;20603;-63
2024/04/09 02:53:25;;;;;;;13.70;13.30;;;22.60;74.20;;;;;;5326899;26;20816;-63
2024/04/09 02:56:02;;;;;;;12.83;12.50;;;22.60;74.20;;;;;;5331102;26;20463;-63
2024/04/09 02:58:30;;;;;;;13.10;12.80;;;22.60;74.10;;;;;;5327926;26;20480;-63
2024/04/09 03:00:57;;;;;;;13.10;12.70;;;22.60;74.10;;;;;;5326076;26;20532;-63
2024/04/09 03:03:25;;;;;;;12.87;12.57;;;22.60;74.10;;;;;;5330228;26;20592;-63
2024/04/09 03:05:51;;;;;;;13.83;13.30;;;22.60;74.10;;;;;;5332815;26;20506;-63
2024/04/09 03:08:22;;;;;;;13.57;13.17;;;22.60;74.20;;;;;;5330632;26;20467;-63
2024/04/09 03:10:48;;;;;;;13.80;13.40;;;22.60;74.20;;;;;;5326072;26;20230;-63
2024/04/09 03:13:16;;;;;;;13.50;13.10;;;22.60;74.10;;;;;;5327768;26;20568;-62
2024/04/09 03:15:42;;;;;;;17.90;17.40;;;22.60;74.20;;;;;;5332526;26;20233;-63
2024/04/09 03:18:10;;;;;;;17.80;17.20;;;22.60;74.10;;;;;;5332533;26;20472;-63
2024/04/09 03:20:36;;;;;;;13.17;12.80;;;22.60;74.10;;;;;;5325854;26;20231;-64
2024/04/09 03:23:04;;;;;;;13.10;12.70;;;22.60;74.10;;;;;;5326571;26;20461;-63
2024/04/09 03:25:33;;;;;;;13.30;13.00;;;22.60;74.20;;;;;;5331581;26;20229;-63
2024/04/09 03:28:01;;;;;;;13.30;12.90;;;22.60;74.10;;;;;;5332398;26;20524;-62
2024/04/09 03:30:27;;;;;;;13.80;13.40;;;22.60;74.10;;;;;;5327406;26;20464;-62
2024/04/09 03:32:55;;;;;;;13.60;13.20;;;22.60;74.10;;;;;;5326349;26;20573;-63
2024/04/09 03:35:21;;;;;;;12.57;12.27;;;22.60;74.10;;;;;;5329023;26;20230;-63
2024/04/09 03:37:49;;;;;;;12.80;12.50;;;22.60;74.20;;;;;;5332193;26;20468;-63
2024/04/09 03:40:15;;;;;;;13.37;12.97;;;22.60;74.10;;;;;;5330424;26;20716;-63
2024/04/09 03:42:48;;;;;;;13.10;12.70;;;22.60;74.10;;;;;;5326229;26;20477;-63
2024/04/09 03:45:13;;;;;;;12.20;11.90;;;22.60;74.10;;;;;;5327157;26;20357;-63
2024/04/09 03:47:42;;;;;;;12.83;12.53;;;22.60;74.10;;;;;;5332101;26;20484;-63
2024/04/09 03:50:08;;;;;;;12.87;12.47;;;22.60;74.10;;;;;;5331862;26;20600;-63
2024/04/09 03:52:37;;;;;;;13.03;12.53;;;22.60;74.10;;;;;;5325641;26;20575;-63
2024/04/09 03:55:05;;;;;;;13.17;12.87;;;22.60;74.10;;;;;;5326069;26;20573;-62
2024/04/09 03:57:31;;;;;;;12.80;12.40;;;22.60;74.10;;;;;;5330825;26;20464;-63
2024/04/09 04:00:03;;;;;;;13.37;13.07;;;22.60;74.10;;;;;;5331742;26;21018;-63
2024/04/09 04:02:29;;;;;;;14.17;13.70;;;22.60;74.10;;;;;;5326988;26;20249;-62
2024/04/09 04:04:57;;;;;;;12.33;12.03;;;22.50;74.00;;;;;;5325877;26;20462;-63
2024/04/09 04:07:23;;;;;;;13.53;13.03;;;22.60;74.10;;;;;;5328287;26;21014;-63
2024/04/09 04:09:52;;;;;;;12.33;12.00;;;22.60;74.10;;;;;;5331630;26;20472;-63
2024/04/09 04:12:18;;;;;;;12.20;11.90;;;22.60;74.10;;;;;;5329550;26;20283;-63
2024/04/09 04:14:47;;;;;;;12.87;12.57;;;22.50;74.00;;;;;;5325867;26;20862;-62
2024/04/09 04:17:16;;;;;;;12.97;12.63;;;22.50;74.00;;;;;;5325985;26;20286;-63
2024/04/09 04:19:44;;;;;;;13.80;13.33;;;22.50;74.00;;;;;;5331384;26;20487;-63
2024/04/09 04:22:10;;;;;;;13.40;13.00;;;22.50;74.00;;;;;;5331138;26;20471;-63
2024/04/09 04:24:39;;;;;;;13.00;12.70;;;22.60;74.00;;;;;;5326024;26;20537;-62
2024/04/09 04:27:04;;;;;;;13.23;12.83;;;22.50;74.00;;;;;;5325798;26;20240;-62
2024/04/09 04:29:33;;;;;;;13.40;13.00;;;22.50;74.00;;;;;;5329972;26;20469;-63
2024/04/09 04:31:59;;;;;;;13.97;13.57;;;22.50;74.00;;;;;;5330832;26;20756;-63
2024/04/09 04:34:30;;;;;;;13.00;12.60;;;22.50;73.90;;;;;;5328447;26;20471;-62
2024/04/09 04:36:56;;;;;;;12.87;12.57;;;22.50;73.90;;;;;;5325432;26;20465;-63
2024/04/09 04:39:26;;;;;;;12.13;11.83;;;22.50;73.90;;;;;;5327469;26;20616;-63
2024/04/09 04:41:52;;;;;;;13.83;13.50;;;22.50;73.90;;;;;;5330454;26;20548;-63
2024/04/09 04:44:20;;;;;;;14.50;14.00;;;22.50;74.00;;;;;;5330045;26;20916;-63
2024/04/09 04:46:46;;;;;;;14.30;13.90;;;22.50;74.00;;;;;;5325343;26;20755;-63
2024/04/09 04:49:14;;;;;;;13.77;13.37;;;22.50;74.00;;;;;;5325380;26;20477;-63
2024/04/09 04:51:43;;;;;;;14.27;13.87;;;22.50;73.90;;;;;;5311163;26;20245;-63
2024/04/09 04:54:11;;;;;;;13.20;12.90;;;22.50;73.90;;;;;;5325271;26;20481;-63
2024/04/09 04:56:37;;;;;;;13.70;13.40;;;22.50;73.90;;;;;;5330884;26;20467;-63
2024/04/09 04:59:05;;;;;;;14.37;13.87;;;22.50;73.90;;;;;;5331096;26;20585;-63
2024/04/09 05:01:31;;;;;;;12.80;12.50;;;22.50;73.90;;;;;;5326248;26;20712;-64
2024/04/09 05:03:59;;;;;;;14.50;14.00;;;22.50;74.00;;;;;;5324984;26;20473;-63
2024/04/09 05:06:25;;;;;;;14.70;14.13;;;22.50;74.00;;;;;;5327710;26;20477;-63
2024/04/09 05:08:56;;;;;;;14.30;13.90;;;22.50;73.90;;;;;;5330961;26;20583;-64
2024/04/09 05:11:22;;;;;;;12.90;12.60;;;22.50;73.90;;;;;;5328393;26;20283;-63
2024/04/09 05:13:52;;;;;;;14.60;14.20;;;22.50;73.90;;;;;;5325010;26;20481;-63
2024/04/09 05:16:18;;;;;;;12.30;12.00;;;22.50;73.90;;;;;;5325572;26;20529;-63
2024/04/09 05:18:46;;;;;;;13.30;13.00;;;22.50;73.90;;;;;;5329602;26;21116;-63
2024/04/09 05:21:12;;;;;;;14.03;13.63;;;22.50;73.90;;;;;;5330288;26;20283;-62
2024/04/09 05:23:41;;;;;;;12.53;12.23;;;22.50;73.90;;;;;;5325170;26;20486;-63
2024/04/09 05:26:09;;;;;;;14.23;13.83;;;22.50;73.90;;;;;;5324944;26;20462;-63
2024/04/09 05:28:37;;;;;;;13.87;13.57;;;22.50;73.90;;;;;;5329436;26;20532;-62
2024/04/09 05:31:03;;;;;;;14.03;13.40;;;22.50;73.90;;;;;;5330144;26;20910;-63
2024/04/09 05:33:31;;;;;;;13.70;13.40;;;22.50;73.90;;;;;;5327245;26;20471;-63
2024/04/09 05:35:57;;;;;;;13.50;13.20;;;22.50;73.90;;;;;;5324794;26;20273;-63
2024/04/09 05:38:25;;;;;;;12.30;12.00;;;22.50;73.90;;;;;;5326399;26;20473;-63
2024/04/09 05:40:55;;;;;;;12.60;12.20;;;22.50;73.80;;;;;;5329760;26;20233;-63
2024/04/09 05:43:26;;;;;;;12.83;12.37;;;22.50;73.90;;;;;;5329143;26;20957;-63
2024/04/09 05:45:52;;;;;;;14.37;13.50;;;22.50;73.90;;;;;;5324556;26;20943;-63
2024/04/09 05:48:20;;;;;;;14.50;14.10;;;22.50;73.90;;;;;;5324700;26;20588;-63
2024/04/09 05:50:46;;;;;;;14.50;14.10;;;22.40;73.80;;;;;;5329743;26;20237;-63
2024/04/09 05:53:14;;;;;;;13.67;13.27;;;22.50;73.90;;;;;;5330441;26;21058;-63
2024/04/09 05:55:40;;;;;;;13.70;13.17;;;22.40;73.80;;;;;;5324546;26;20277;-63
2024/04/09 05:58:08;;;;;;;14.00;13.60;;;22.40;73.80;;;;;;5324185;26;20481;-63
2024/04/09 06:00:39;;;;;;;13.63;13.23;;;22.40;73.70;;;;;;5328004;26;20547;-62
2024/04/09 06:03:07;;;;;;;14.33;14.03;;;22.40;73.80;;;;;;5330476;26;20471;-62
2024/04/09 06:05:33;;;;;;;15.50;15.10;;;22.40;73.70;;;;;;5326201;26;20805;-63
2024/04/09 06:08:02;;;;;;;16.20;15.70;;;22.40;73.70;;;;;;5324080;26;20534;-64
2024/04/09 06:10:27;;;;;;;14.80;14.40;;;22.40;73.70;;;;;;5325811;26;20605;-64
2024/04/09 06:12:56;;;;;;;15.63;15.20;;;22.40;73.70;;;;;;5330059;26;20475;-63
2024/04/09 06:15:22;;;;;;;15.00;14.60;;;22.40;73.70;;;;;;5328593;26;20275;-62
2024/04/09 06:17:53;;;;;;;14.60;14.30;;;22.40;73.70;;;;;;5324006;26;20473;-63
2024/04/09 06:20:19;;;;;;;16.43;16.03;;;22.40;73.70;;;;;;5323281;26;20234;-63
2024/04/09 06:22:48;;;;;;;16.17;15.67;;;22.40;73.70;;;;;;5329771;26;20582;-64
2024/04/09 06:25:14;;;;;;;16.10;15.67;;;22.40;73.70;;;;;;5329768;26;20528;-63
2024/04/09 06:27:43;;;;;;;17.53;16.93;;;22.40;73.70;;;;;;5324285;26;20469;-63
2024/04/09 06:30:09;;;;;;;15.70;15.20;;;22.40;73.60;;;;;;5325872;26;20230;-63
2024/04/09 06:32:38;;;;;;;15.40;15.00;;;22.40;73.60;;;;;;5330759;26;20880;-64
2024/04/09 06:35:07;;;;;;;16.60;16.10;;;22.40;73.60;;;;;;5333073;26;20459;-64
2024/04/09 06:37:37;;;;;;;15.60;15.20;;;22.40;73.60;;;;;;5329369;26;20518;-64
2024/04/09 06:40:05;;;;;;;15.80;15.40;;;22.40;73.60;;;;;;5326907;26;20516;-63
2024/04/09 06:42:34;;;;;;;16.77;16.37;;;22.40;73.60;;;;;;5329274;26;20533;-63
2024/04/09 06:45:01;;;;;;;15.43;15.03;;;22.40;73.60;;;;;;5332927;26;20520;-64
2024/04/09 06:47:29;;;;;;;15.53;15.13;;;22.40;73.60;;;;;;5330781;26;20480;-62
2024/04/09 06:49:56;;;;;;;14.80;14.40;;;22.40;73.50;;;;;;5326761;26;20467;-63
2024/04/09 06:52:28;;;;;;;13.57;13.27;;;22.40;73.50;;;;;;5326739;26;20536;-63
2024/04/09 06:54:54;;;;;;;14.00;13.70;;;22.40;73.50;;;;;;5332847;26;20480;-64
2024/04/09 06:57:22;;;;;;;15.40;15.00;;;22.40;73.50;;;;;;5332585;26;20528;-64
2024/04/09 06:59:48;;;;;;;15.50;15.10;;;22.40;73.50;;;;;;5326576;26;20230;-64
2024/04/09 07:02:16;;;;;;;16.90;16.40;;;22.40;73.50;;;;;;5326126;26;20545;-64
2024/04/09 07:04:43;;;;;;;16.27;15.87;;;22.40;73.50;;;;;;5331941;26;20233;-64
2024/04/09 07:07:11;;;;;;;16.80;16.40;;;22.40;73.60;;;;;;5332579;26;20528;-63
2024/04/09 07:09:39;;;;;;;15.90;15.50;;;22.40;73.50;;;;;;5328290;26;20544;-63
2024/04/09 07:12:08;;;;;;;16.63;16.23;;;22.40;73.50;;;;;;5325904;26;20566;-63
2024/04/09 07:14:34;;;;;;;17.57;17.07;;;22.40;73.50;;;;;;5329933;26;20525;-63
2024/04/09 07:17:03;;;;;;;17.00;16.50;;;22.40;73.50;;;;;;5332191;26;20467;-63
2024/04/09 07:19:28;;;;;;;17.63;17.13;;;22.40;73.50;;;;;;5330192;26;20279;-63
2024/04/09 07:21:57;;;;;;;17.40;16.30;;;22.40;73.50;;;;;;5325757;26;20472;-63
2024/04/09 07:24:23;;;;;;;16.53;16.13;;;22.30;73.40;;;;;;5326951;26;20286;-64
2024/04/09 07:26:54;;;;;;;17.23;16.73;;;22.30;73.40;;;;;;5332189;26;20480;-63
2024/04/09 07:29:20;;;;;;;16.70;16.20;;;22.30;73.30;;;;;;5332152;26;20524;-64
2024/04/09 07:31:48;;;;;;;16.87;16.43;;;22.30;73.30;;;;;;5325796;26;20820;-63
2024/04/09 07:34:14;;;;;;;17.27;16.87;;;22.30;73.30;;;;;;5326350;26;20405;-64
2024/04/09 07:36:42;;;;;;;17.77;17.10;;;22.30;73.40;;;;;;5330663;26;20481;-63
2024/04/09 07:39:09;;;;;;;17.67;17.17;;;22.30;73.30;;;;;;5332260;26;20578;-64
2024/04/09 07:41:37;;;;;;;16.30;15.90;;;22.30;73.30;;;;;;5327445;26;20479;-64
2024/04/09 07:44:05;;;;;;;16.50;16.10;;;22.30;73.30;;;;;;5326286;26;20557;-64
2024/04/09 07:46:34;;;;;;;15.90;15.50;;;22.30;73.30;;;;;;5328439;26;20617;-64
2024/04/09 07:49:00;;;;;;;16.03;15.63;;;22.30;73.30;;;;;;5332372;26;20452;-63
2024/04/09 07:51:28;;;;;;;16.00;15.60;;;22.30;74.10;;;;;;5330127;26;20532;-63
2024/04/09 07:53:54;;;;;;;16.67;16.17;;;22.30;73.30;;;;;;5326059;26;20465;-63
2024/04/09 07:56:22;;;;;;;16.70;16.30;;;22.30;73.30;;;;;;5326069;26;21068;-64
2024/04/09 07:58:48;;;;;;;15.37;14.97;;;22.30;73.30;;;;;;5312036;26;20268;-63
2024/04/09 08:01:19;;;;;;;15.37;14.97;;;22.30;73.30;;;;;;5325202;26;20476;-63
2024/04/09 08:03:45;;;;;;;16.37;15.87;;;22.30;73.30;;;;;;5331046;26;20233;-63
2024/04/09 08:06:13;;;;;;;16.53;16.07;;;22.30;73.30;;;;;;5331807;26;20930;-64
2024/04/09 08:08:39;;;;;;;15.60;15.20;;;22.30;73.20;;;;;;5327870;26;20263;-63
2024/04/09 08:11:09;;;;;;;15.73;15.33;;;22.30;73.30;;;;;;5325099;26;20477;-63
2024/04/09 08:13:35;;;;;;;16.93;16.50;;;22.30;73.20;;;;;;5328780;26;20276;-63
2024/04/09 08:16:04;;;;;;;16.83;16.40;;;22.30;73.20;;;;;;5332081;26;21021;-63
2024/04/09 08:18:33;;;;;;;16.40;15.90;;;22.30;73.20;;;;;;5329850;26;20229;-63
2024/04/09 08:21:01;;;;;;;16.47;16.07;;;22.30;73.10;;;;;;5324971;26;20476;-62
2024/04/09 08:23:27;;;;;;;16.50;16.00;;;22.30;73.10;;;;;;5326324;26;21059;-63
2024/04/09 08:25:55;;;;;;;15.97;15.57;;;22.30;73.10;;;;;;5331528;26;20467;-63
2024/04/09 08:28:21;;;;;;;16.10;15.70;;;22.30;73.10;;;;;;5331455;26;20229;-63
2024/04/09 08:30:52;;;;;;;17.17;16.70;;;22.20;73.00;;;;;;5325236;26;20469;-63
2024/04/09 08:33:17;;;;;;;16.00;15.60;;;22.30;73.10;;;;;;5325702;26;20230;-64
2024/04/09 08:35:50;;;;;;;15.60;15.20;;;22.20;72.90;;;;;;5330122;26;20555;-64
2024/04/09 08:38:17;;;;;;;16.00;15.60;;;22.20;72.80;;;;;;5331768;26;20271;-64
2024/04/09 08:40:46;;;;;;;15.93;15.53;;;22.20;72.90;;;;;;5326057;26;20528;-63
2024/04/09 08:43:16;;;;;;;15.07;14.67;;;22.20;72.80;;;;;;5325551;26;20465;-63
2024/04/09 08:45:46;;;;;;;16.57;16.17;;;22.20;72.90;;;;;;5329595;26;20473;-63
2024/04/09 08:48:15;;;;;;;17.10;16.70;;;22.20;72.90;;;;;;5331298;26;20463;-64
2024/04/09 08:50:50;;;;;;;16.00;15.60;;;22.20;72.90;;;;;;5326510;26;20531;-63
2024/04/09 08:53:18;;;;;;;16.07;15.67;;;22.20;72.90;;;;;;5323843;26;20460;-63
2024/04/09 08:55:46;;;;;;;16.13;15.73;;;22.20;72.80;;;;;;5329557;26;20465;-64
2024/04/09 08:58:12;;;;;;;17.20;16.80;;;22.20;72.80;;;;;;5331071;26;20471;-63
2024/04/09 09:00:40;;;;;;;16.30;15.80;;;22.20;72.80;;;;;;5327328;26;20483;-63
2024/04/09 09:03:06;;;;;;;17.07;16.57;;;22.20;72.80;;;;;;5325111;26;20230;-64
2024/04/09 09:05:35;;;;;;;16.20;15.80;;;22.20;72.80;;;;;;5326652;26;20523;-64
2024/04/09 09:08:05;;;;;;;16.60;16.10;;;22.20;72.80;;;;;;5331090;26;20229;-63
2024/04/09 09:10:34;;;;;;;15.87;15.47;;;22.20;72.80;;;;;;5328948;26;21414;-63
2024/04/09 09:13:02;;;;;;;15.40;15.00;;;22.20;72.70;;;;;;5325134;26;20992;-64
2024/04/09 09:15:30;;;;;;;15.77;15.20;;;22.20;72.70;;;;;;5325439;26;20477;-63
2024/04/09 09:17:56;;;;;;;15.60;15.20;;;22.20;72.70;;;;;;5330794;26;20516;-64
2024/04/09 09:20:26;;;;;;;15.20;14.80;;;22.20;72.70;;;;;;5330049;26;20883;-63
2024/04/09 09:22:52;;;;;;;15.80;15.40;;;22.20;72.60;;;;;;5310863;26;20517;-63
2024/04/09 09:25:25;;;;;;;16.30;15.90;;;22.20;72.60;;;;;;5324798;26;20473;-63
2024/04/09 09:28:01;;;;;;;15.40;15.00;;;22.20;72.60;;;;;;5330618;26;20225;-63
2024/04/09 09:30:39;;;;;;;16.23;15.83;;;22.20;72.50;;;;;;5329614;26;20582;-63
2024/04/09 09:33:11;;;;;;;18.57;18.07;;;22.20;72.50;;;;;;5324830;26;20517;-63
2024/04/09 09:35:45;;;;;;;16.57;16.07;;;22.10;72.50;;;;;;5327179;26;20477;-63
2024/04/09 09:38:11;;;;;;;16.73;16.23;;;22.10;72.50;;;;;;5330475;26;20807;-63
2024/04/09 09:40:44;;;;;;;15.83;15.43;;;22.10;72.40;;;;;;5327298;26;20471;-63
2024/04/09 09:43:10;;;;;;;16.60;16.10;;;22.10;72.40;;;;;;5324647;26;20863;-63
2024/04/09 09:45:40;;;;;;;16.00;15.60;;;22.20;72.50;;;;;;5326951;26;20532;-64
2024/04/09 09:48:08;;;;;;;16.23;15.83;;;22.10;72.30;;;;;;5330355;26;20510;-63
2024/04/09 09:50:39;;;;;;;17.07;16.67;;;22.10;72.30;;;;;;5328114;26;20475;-62
2024/04/09 09:53:04;;;;;;;16.33;15.83;;;22.10;72.30;;;;;;5324463;26;20594;-64
2024/04/09 09:55:34;;;;;;;14.87;14.47;;;22.10;72.20;;;;;;5324843;26;20480;-62
2024/04/09 09:58:03;;;;;;;15.37;14.97;;;22.10;72.20;;;;;;5330100;26;20231;-64
2024/04/09 10:00:33;;;;;;;16.73;16.33;;;22.10;72.20;;;;;;5329182;26;20558;-63
2024/04/09 10:02:59;;;;;;;17.20;16.80;;;22.10;72.20;;;;;;5317412;26;20512;-63
2024/04/09 10:05:32;;;;;;;16.80;16.40;;;22.10;72.20;;;;;;5332711;26;20508;-64
2024/04/09 10:07:58;;;;;;;16.30;15.90;;;22.10;72.10;;;;;;5314603;26;20461;-63
2024/04/09 10:10:27;;;;;;;17.03;16.53;;;22.10;72.10;;;;;;5326583;26;20544;-63
2024/04/09 10:12:53;;;;;;;16.63;16.20;;;22.10;72.10;;;;;;5333011;26;20327;-64
2024/04/09 10:15:28;;;;;;;16.90;16.50;;;22.10;72.10;;;;;;5333162;26;20468;-63
2024/04/09 10:17:55;;;;;;;17.50;17.10;;;22.10;72.00;;;;;;5327049;26;20511;-63
2024/04/09 10:20:25;;;;;;;17.10;16.70;;;22.20;72.10;;;;;;5326592;26;20593;-63
2024/04/09 10:22:52;;;;;;;16.30;15.90;;;22.10;71.90;;;;;;5332180;26;20471;-63
2024/04/09 10:25:22;;;;;;;16.60;16.20;;;22.10;71.90;;;;;;5333099;26;20542;-64
2024/04/09 10:27:59;;;;;;;16.53;16.13;;;22.10;71.80;;;;;;5328834;26;20850;-64
2024/04/09 10:30:31;;;;;;;15.30;14.90;;;22.10;71.80;;;;;;5326471;26;20573;-62
2024/04/09 10:32:58;;;;;;;17.50;17.10;;;22.10;71.80;;;;;;5313691;26;20529;-63
2024/04/09 10:35:27;;;;;;;16.23;15.83;;;22.10;71.80;;;;;;5326978;26;20527;-64
2024/04/09 10:37:55;;;;;;;16.80;16.30;;;22.10;71.70;;;;;;5332610;26;20527;-63
2024/04/09 10:40:24;;;;;;;17.37;16.87;;;22.10;71.70;;;;;;5332054;26;21002;-64
2024/04/09 10:42:52;;;;;;;17.20;16.80;;;22.10;71.70;;;;;;5328047;26;20565;-64
2024/04/09 10:45:21;;;;;;;16.47;15.97;;;22.10;71.70;;;;;;5327086;26;20477;-64
2024/04/09 10:47:49;;;;;;;15.77;15.30;;;22.10;71.60;;;;;;5330876;26;20469;-64
2024/04/09 10:50:18;;;;;;;16.83;16.33;;;22.10;71.70;;;;;;5332246;26;20535;-62
2024/04/09 10:52:45;;;;;;;16.80;16.40;;;22.10;71.60;;;;;;5329507;26;20471;-63
2024/04/09 10:55:15;;;;;;;16.17;15.67;;;22.10;71.60;;;;;;5326660;26;21035;-64
2024/04/09 10:57:42;;;;;;;16.70;16.30;;;22.10;71.60;;;;;;5328879;26;20464;-64
2024/04/09 11:00:12;;;;;;;17.50;17.00;;;22.10;72.30;;;;;;5332707;26;20531;-63
2024/04/09 11:02:38;;;;;;;16.10;15.70;;;22.10;71.50;;;;;;5330666;26;20483;-63
2024/04/09 11:05:11;;;;;;;15.47;15.07;;;22.10;71.50;;;;;;5326630;26;20913;-63
2024/04/09 11:07:38;;;;;;;14.87;14.50;;;22.10;71.50;;;;;;5327861;26;20523;-64
2024/04/09 11:10:07;;;;;;;16.03;15.63;;;22.10;71.50;;;;;;5332512;26;20479;-63
2024/04/09 11:12:35;;;;;;;15.70;15.30;;;22.10;71.40;;;;;;5331662;26;20471;-64
2024/04/09 11:15:03;;;;;;;16.10;15.70;;;22.10;71.30;;;;;;5326183;26;21027;-63
2024/04/09 11:17:29;;;;;;;16.30;15.80;;;22.10;71.30;;;;;;5325975;26;20468;-64
2024/04/09 11:20:14;;;;;;;16.03;15.63;;;22.10;71.30;;;;;;5331952;26;20587;-64
2024/04/09 11:22:43;;;;;;;17.03;16.63;;;22.10;71.20;;;;;;5329975;26;20284;-63
2024/04/09 11:25:13;;;;;;;16.57;16.17;;;22.10;71.10;;;;;;5326408;26;20472;-64
2024/04/09 11:27:39;;;;;;;16.50;16.10;;;22.10;71.10;;;;;;5327852;26;20856;-64
2024/04/09 11:30:09;;;;;;;16.47;16.07;;;22.10;71.10;;;;;;5332438;26;20590;-63
2024/04/09 11:32:36;;;;;;;16.17;15.77;;;22.10;71.10;;;;;;5331060;26;20998;-63
2024/04/09 11:35:04;;;;;;;16.67;16.17;;;22.10;71.10;;;;;;5326334;26;20473;-64
2024/04/09 11:37:32;;;;;;;16.30;15.90;;;22.00;70.90;;;;;;5326207;26;20469;-63
2024/04/09 11:40:01;;;;;;;16.10;15.70;;;22.00;70.90;;;;;;5311955;26;20721;-63
2024/04/09 11:42:27;;;;;;;15.73;15.33;;;22.00;70.80;;;;;;5325689;26;20855;-64
2024/04/09 11:45:02;;;;;;;15.90;15.40;;;22.00;70.80;;;;;;5330675;26;20473;-63
2024/04/09 11:47:27;;;;;;;15.80;15.40;;;22.10;70.90;;;;;;5332122;26;20528;-64
2024/04/09 11:49:56;;;;;;;16.63;16.23;;;22.10;70.90;;;;;;5327210;26;20977;-64
2024/04/09 11:52:22;;;;;;;15.90;15.50;;;22.00;70.70;;;;;;5325512;26;20234;-63
2024/04/09 11:54:53;;;;;;;17.03;16.53;;;22.00;70.70;;;;;;5329259;26;20557;-64
2024/04/09 11:57:19;;;;;;;16.13;15.73;;;22.00;70.70;;;;;;5331985;26;20229;-63
2024/04/09 11:59:50;;;;;;;15.77;15.37;;;22.00;70.70;;;;;;5331830;26;20529;-63
2024/04/09 12:02:16;;;;;;;16.17;15.77;;;22.10;70.70;;;;;;5331258;26;20280;-63
2024/04/09 12:04:44;;;;;;;16.03;15.60;;;22.10;70.70;;;;;;5330099;26;20472;-63
2024/04/09 12:07:10;;;;;;;16.10;15.67;;;22.10;70.70;;;;;;5325953;26;20513;-63
2024/04/09 12:09:39;;;;;;;15.53;15.13;;;22.10;70.60;;;;;;5325919;26;20468;-63
2024/04/09 12:12:08;;;;;;;15.57;15.17;;;22.10;70.50;;;;;;5331096;26;20229;-63
2024/04/09 12:14:37;;;;;;;15.50;15.10;;;22.10;70.60;;;;;;5331783;26;20480;-63
2024/04/09 12:17:04;;;;;;;17.20;16.80;;;22.10;70.40;;;;;;5325781;26;21063;-63
2024/04/09 12:19:32;;;;;;;16.53;16.13;;;22.10;70.30;;;;;;5325853;26;20519;-63
2024/04/09 12:21:59;;;;;;;15.00;14.60;;;22.10;70.30;;;;;;5330527;26;20468;-63
2024/04/09 12:24:27;;;;;;;15.00;14.60;;;22.10;70.20;;;;;;5331459;26;20533;-64
2024/04/09 12:26:54;;;;;;;15.43;15.03;;;22.10;70.20;;;;;;5326920;26;20520;-63
2024/04/09 12:29:28;;;;;;;15.07;14.57;;;22.10;70.00;;;;;;5325533;26;20585;-63
2024/04/09 12:31:54;;;;;;;15.07;14.67;;;22.10;70.10;;;;;;5329393;26;20473;-64